createdAt,value
2023-05-10T00:00:54.576Z,94530.00
2023-05-10T00:01:54.624Z,94528.00
2023-05-10T00:02:54.688Z,94527.00
2023-05-10T00:03:54.664Z,94532.00
2023-05-10T00:04:54.682Z,94528.00
2023-05-10T00:05:54.686Z,94530.00
2023-05-10T00:06:54.738Z,94532.00
2023-05-10T00:07:54.818Z,94532.00
2023-05-10T00:08:54.794Z,94530.00
2023-05-10T00:09:54.811Z,94528.00
2023-05-10T00:10:54.946Z,94534.00
2023-05-10T00:11:54.917Z,94530.00
2023-05-10T00:12:55.014Z,94530.00
2023-05-10T00:13:55.036Z,94532.00
2023-05-10T00:14:55.043Z,94530.00
2023-05-10T00:15:55.121Z,94528.00
2023-05-10T00:16:55.315Z,94528.00
2023-05-10T00:17:55.337Z,94530.00
2023-05-10T00:18:55.296Z,94527.00
2023-05-10T00:19:55.339Z,94528.00
2023-05-10T00:20:55.360Z,94525.00
2023-05-10T00:21:55.362Z,94527.00
2023-05-10T00:22:55.428Z,94528.00
2023-05-10T00:23:55.459Z,94527.00
2023-05-10T00:24:55.511Z,94532.00
2023-05-10T00:25:55.506Z,94532.00
2023-05-10T00:26:55.562Z,94528.00
2023-05-10T00:27:55.629Z,94528.00
2023-05-10T00:28:55.612Z,94528.00
2023-05-10T00:29:55.665Z,94528.00
2023-05-10T00:30:55.627Z,94528.00
2023-05-10T00:31:55.662Z,94528.00
2023-05-10T00:32:55.639Z,94528.00
2023-05-10T00:33:55.612Z,94530.00
2023-05-10T00:34:55.646Z,94532.00
2023-05-10T00:35:55.604Z,94532.00
2023-05-10T00:36:55.664Z,94534.00
2023-05-10T00:37:55.666Z,94532.00
2023-05-10T00:38:55.645Z,94536.00
2023-05-10T00:39:55.686Z,94536.00
2023-05-10T00:40:55.695Z,94536.00
2023-05-10T00:41:55.744Z,94538.00
2023-05-10T00:42:55.882Z,94538.00
2023-05-10T00:43:55.909Z,94538.00
2023-05-10T00:44:55.888Z,94536.00
2023-05-10T00:45:55.978Z,94540.00
2023-05-10T00:46:55.989Z,94538.00
2023-05-10T00:47:56.143Z,94538.00
2023-05-10T00:48:56.092Z,94536.00
2023-05-10T00:49:56.144Z,94538.00
2023-05-10T00:50:56.158Z,94540.00
2023-05-10T00:51:56.174Z,94540.00
2023-05-10T00:52:56.224Z,94540.00
2023-05-10T00:53:56.226Z,94542.00
2023-05-10T00:54:56.276Z,94542.00
2023-05-10T00:55:56.261Z,94542.00
2023-05-10T00:56:56.810Z,94540.00
2023-05-10T00:57:56.282Z,94542.00
2023-05-10T00:58:56.282Z,94544.00
2023-05-10T00:59:56.389Z,94542.00
2023-05-10T01:00:56.465Z,94542.00
2023-05-10T01:01:56.447Z,94544.00
2023-05-10T01:02:56.580Z,94544.00
2023-05-10T01:03:56.466Z,94540.00
2023-05-10T01:04:56.586Z,94540.00
2023-05-10T01:05:56.582Z,94540.00
2023-05-10T01:06:56.664Z,94542.00
2023-05-10T01:07:56.696Z,94542.00
2023-05-10T01:08:56.714Z,94540.00
2023-05-10T01:09:56.761Z,94542.00
2023-05-10T01:10:56.690Z,94544.00
2023-05-10T01:11:56.782Z,94544.00
2023-05-10T01:12:56.920Z,94542.00
2023-05-10T01:13:56.875Z,94542.00
2023-05-10T01:14:56.956Z,94544.00
2023-05-10T01:15:57.078Z,94542.00
2023-05-10T01:16:57.070Z,94542.00
2023-05-10T01:17:57.147Z,94544.00
2023-05-10T01:18:57.166Z,94542.00
2023-05-10T01:19:57.305Z,94540.00
2023-05-10T01:20:57.362Z,94538.00
2023-05-10T01:21:57.386Z,94542.00
2023-05-10T01:22:57.443Z,94542.00
2023-05-10T01:23:57.508Z,94538.00
2023-05-10T01:24:57.551Z,94540.00
2023-05-10T01:25:57.507Z,94536.00
2023-05-10T01:26:57.546Z,94538.00
2023-05-10T01:27:57.561Z,94536.00
2023-05-10T01:28:57.550Z,94534.00
2023-05-10T01:30:13.639Z,94538.00
2023-05-10T01:30:58.589Z,94540.00
2023-05-10T01:31:57.576Z,94536.00
2023-05-10T01:32:57.596Z,94536.00
2023-05-10T01:33:57.558Z,94534.00
2023-05-10T01:34:57.545Z,94536.00
2023-05-10T01:35:57.513Z,94534.00
2023-05-10T01:36:57.493Z,94536.00
2023-05-10T01:37:57.544Z,94534.00
2023-05-10T01:38:57.536Z,94538.00
2023-05-10T01:39:57.484Z,94536.00
2023-05-10T01:40:57.502Z,94534.00
2023-05-10T01:41:57.485Z,94538.00
2023-05-10T01:42:57.509Z,94536.00
2023-05-10T01:43:57.447Z,94540.00
2023-05-10T01:44:57.468Z,94538.00
2023-05-10T01:45:57.452Z,94536.00
2023-05-10T01:46:57.670Z,94538.00
2023-05-10T01:47:57.580Z,94538.00
2023-05-10T01:48:57.461Z,94538.00
2023-05-10T01:49:57.478Z,94540.00
2023-05-10T01:50:57.428Z,94540.00
2023-05-10T01:51:57.425Z,94544.00
2023-05-10T01:52:57.411Z,94540.00
2023-05-10T01:53:57.409Z,94542.00
2023-05-10T01:54:57.401Z,94544.00
2023-05-10T01:55:57.405Z,94544.00
2023-05-10T01:56:57.350Z,94548.00
2023-05-10T01:57:57.378Z,94548.00
2023-05-10T01:58:57.350Z,94552.00
2023-05-10T01:59:57.372Z,94550.00
2023-05-10T02:00:57.454Z,94548.00
2023-05-10T02:01:57.384Z,94550.00
2023-05-10T02:02:57.538Z,94552.00
2023-05-10T02:03:57.499Z,94552.00
2023-05-10T02:04:57.472Z,94554.00
2023-05-10T02:05:57.552Z,94554.00
2023-05-10T02:06:57.519Z,94560.00
2023-05-10T02:07:57.593Z,94558.00
2023-05-10T02:08:57.589Z,94558.00
2023-05-10T02:09:57.612Z,94560.00
2023-05-10T02:10:57.648Z,94562.00
2023-05-10T02:11:57.678Z,94560.00
2023-05-10T02:12:57.733Z,94562.00
2023-05-10T02:13:57.673Z,94564.00
2023-05-10T02:14:57.707Z,94568.00
2023-05-10T02:15:57.710Z,94566.00
2023-05-10T02:16:57.757Z,94566.00
2023-05-10T02:17:58.021Z,94568.00
2023-05-10T02:18:57.779Z,94568.00
2023-05-10T02:19:57.842Z,94566.00
2023-05-10T02:20:57.859Z,94570.00
2023-05-10T02:21:57.978Z,94570.00
2023-05-10T02:22:57.973Z,94570.00
2023-05-10T02:23:58.011Z,94570.00
2023-05-10T02:24:58.060Z,94572.00
2023-05-10T02:25:58.170Z,94572.00
2023-05-10T02:26:58.208Z,94570.00
2023-05-10T02:27:58.224Z,94574.00
2023-05-10T02:28:58.255Z,94574.00
2023-05-10T02:29:58.264Z,94574.00
2023-05-10T02:30:58.319Z,94578.00
2023-05-10T02:31:58.488Z,94576.00
2023-05-10T02:32:58.475Z,94576.00
2023-05-10T02:33:58.421Z,94574.00
2023-05-10T02:34:58.502Z,94572.00
2023-05-10T02:35:58.600Z,94576.00
2023-05-10T02:36:58.587Z,94578.00
2023-05-10T02:37:58.575Z,94574.00
2023-05-10T02:38:58.573Z,94578.00
2023-05-10T02:39:58.583Z,94576.00
2023-05-10T02:40:58.634Z,94574.00
2023-05-10T02:41:58.630Z,94574.00
2023-05-10T02:42:58.638Z,94578.00
2023-05-10T02:43:58.653Z,94576.00
2023-05-10T02:44:58.665Z,94578.00
2023-05-10T02:45:58.691Z,94576.00
2023-05-10T02:46:58.666Z,94576.00
2023-05-10T02:47:58.713Z,94580.00
2023-05-10T02:48:58.676Z,94576.00
2023-05-10T02:49:58.761Z,94578.00
2023-05-10T02:50:58.725Z,94580.00
2023-05-10T02:51:58.754Z,94582.00
2023-05-10T02:52:58.782Z,94580.00
2023-05-10T02:53:58.876Z,94578.00
2023-05-10T02:54:58.961Z,94578.00
2023-05-10T02:55:58.976Z,94580.00
2023-05-10T02:56:59.005Z,94580.00
2023-05-10T02:57:58.957Z,94582.00
2023-05-10T02:58:59.058Z,94576.00
2023-05-10T02:59:59.062Z,94580.00
2023-05-10T03:00:59.087Z,94578.00
2023-05-10T03:01:59.095Z,94582.00
2023-05-10T03:02:59.194Z,94580.00
2023-05-10T03:03:59.095Z,94580.00
2023-05-10T03:04:59.426Z,94583.00
2023-05-10T03:05:59.117Z,94582.00
2023-05-10T03:06:59.115Z,94582.00
2023-05-10T03:07:59.143Z,94580.00
2023-05-10T03:08:59.232Z,94583.00
2023-05-10T03:09:59.339Z,94583.00
2023-05-10T03:10:59.353Z,94582.00
2023-05-10T03:11:59.455Z,94583.00
2023-05-10T03:12:59.468Z,94580.00
2023-05-10T03:13:59.469Z,94580.00
2023-05-10T03:14:59.555Z,94582.00
2023-05-10T03:15:59.584Z,94580.00
2023-05-10T03:16:59.550Z,94582.00
2023-05-10T03:17:59.658Z,94582.00
2023-05-10T03:18:59.608Z,94582.00
2023-05-10T03:19:59.683Z,94582.00
2023-05-10T03:20:59.725Z,94580.00
2023-05-10T03:21:59.800Z,94580.00
2023-05-10T03:22:59.846Z,94582.00
2023-05-10T03:23:59.944Z,94583.00
2023-05-10T03:24:59.956Z,94583.00
2023-05-10T03:26:00.015Z,94583.00
2023-05-10T03:27:00.029Z,94585.00
2023-05-10T03:28:00.054Z,94589.00
2023-05-10T03:29:00.124Z,94589.00
2023-05-10T03:30:00.265Z,94589.00
2023-05-10T03:31:00.227Z,94585.00
2023-05-10T03:32:00.261Z,94587.00
2023-05-10T03:33:00.352Z,94589.00
2023-05-10T03:34:00.336Z,94593.00
2023-05-10T03:35:00.337Z,94593.00
2023-05-10T03:36:00.408Z,94591.00
2023-05-10T03:37:00.394Z,94595.00
2023-05-10T03:38:00.415Z,94595.00
2023-05-10T03:39:00.415Z,94597.00
2023-05-10T03:40:00.454Z,94597.00
2023-05-10T03:41:00.439Z,94595.00
2023-05-10T03:42:00.459Z,94599.00
2023-05-10T03:43:00.461Z,94599.00
2023-05-10T03:44:00.459Z,94601.00
2023-05-10T03:45:00.519Z,94601.00
2023-05-10T03:46:00.524Z,94603.00
2023-05-10T03:47:00.727Z,94605.00
2023-05-10T03:48:00.714Z,94603.00
2023-05-10T03:49:00.806Z,94603.00
2023-05-10T03:50:00.748Z,94607.00
2023-05-10T03:51:00.804Z,94609.00
2023-05-10T03:52:00.859Z,94607.00
2023-05-10T03:53:00.871Z,94609.00
2023-05-10T03:54:00.823Z,94609.00
2023-05-10T03:55:00.884Z,94609.00
2023-05-10T03:56:00.833Z,94613.00
2023-05-10T03:57:00.855Z,94613.00
2023-05-10T03:58:00.999Z,94611.00
2023-05-10T03:59:00.909Z,94613.00
2023-05-10T04:00:00.995Z,94613.00
2023-05-10T04:01:00.989Z,94617.00
2023-05-10T04:02:01.064Z,94615.00
2023-05-10T04:03:01.087Z,94615.00
2023-05-10T04:04:01.144Z,94613.00
2023-05-10T04:05:01.157Z,94611.00
2023-05-10T04:06:01.262Z,94611.00
2023-05-10T04:07:01.237Z,94611.00
2023-05-10T04:08:01.276Z,94611.00
2023-05-10T04:09:01.290Z,94611.00
2023-05-10T04:10:01.243Z,94609.00
2023-05-10T04:11:01.292Z,94609.00
2023-05-10T04:12:01.366Z,94611.00
2023-05-10T04:13:01.489Z,94613.00
2023-05-10T04:14:01.528Z,94611.00
2023-05-10T04:15:01.587Z,94611.00
2023-05-10T04:16:01.594Z,94609.00
2023-05-10T04:17:02.250Z,94607.00
2023-05-10T04:18:01.872Z,94609.00
2023-05-10T04:19:01.836Z,94611.00
2023-05-10T04:20:01.878Z,94613.00
2023-05-10T04:21:01.933Z,94611.00
2023-05-10T04:22:01.996Z,94611.00
2023-05-10T04:23:02.054Z,94611.00
2023-05-10T04:24:02.126Z,94615.00
2023-05-10T04:25:02.125Z,94613.00
2023-05-10T04:26:02.175Z,94613.00
2023-05-10T04:27:02.232Z,94615.00
2023-05-10T04:28:02.336Z,94617.00
2023-05-10T04:29:02.351Z,94615.00
2023-05-10T04:30:02.415Z,94615.00
2023-05-10T04:31:02.522Z,94615.00
2023-05-10T04:32:02.570Z,94615.00
2023-05-10T04:33:02.760Z,94613.00
2023-05-10T04:34:02.707Z,94613.00
2023-05-10T04:35:02.796Z,94613.00
2023-05-10T04:36:02.824Z,94613.00
2023-05-10T04:37:02.910Z,94615.00
2023-05-10T04:38:02.911Z,94611.00
2023-05-10T04:39:02.961Z,94613.00
2023-05-10T04:40:03.050Z,94617.00
2023-05-10T04:41:03.086Z,94613.00
2023-05-10T04:42:03.150Z,94613.00
2023-05-10T04:43:03.198Z,94615.00
2023-05-10T04:44:03.267Z,94617.00
2023-05-10T04:45:03.265Z,94619.00
2023-05-10T04:46:03.415Z,94621.00
2023-05-10T04:47:03.327Z,94619.00
2023-05-10T04:48:03.434Z,94621.00
2023-05-10T04:49:03.481Z,94629.00
2023-05-10T04:50:03.518Z,94629.00
2023-05-10T04:51:03.632Z,94629.00
2023-05-10T04:52:03.642Z,94629.00
2023-05-10T04:53:03.739Z,94629.00
2023-05-10T04:54:06.645Z,94629.00
2023-05-10T04:55:03.748Z,94621.00
2023-05-10T04:56:03.732Z,94619.00
2023-05-10T04:57:03.749Z,94629.00
2023-05-10T04:58:03.719Z,94632.00
2023-05-10T04:59:03.712Z,94631.00
2023-05-10T05:00:03.719Z,94634.00
2023-05-10T05:02:31.442Z,94631.00
2023-05-10T05:03:23.777Z,94632.00
2023-05-10T05:04:23.719Z,94634.00
2023-05-10T05:05:23.737Z,94632.00
2023-05-10T05:06:23.728Z,94636.00
2023-05-10T05:07:23.703Z,94636.00
2023-05-10T05:08:23.640Z,94638.00
2023-05-10T05:09:23.663Z,94640.00
2023-05-10T05:10:23.667Z,94642.00
2023-05-10T05:11:23.680Z,94642.00
2023-05-10T05:12:23.672Z,94644.00
2023-05-10T05:13:23.845Z,94646.00
2023-05-10T05:14:23.608Z,94644.00
2023-05-10T05:15:23.644Z,94644.00
2023-05-10T05:16:23.683Z,94646.00
2023-05-10T05:17:23.627Z,94646.00
2023-05-10T05:18:23.727Z,94648.00
2023-05-10T05:19:23.725Z,94648.00
2023-05-10T05:20:23.626Z,94648.00
2023-05-10T05:21:23.637Z,94648.00
2023-05-10T05:22:23.632Z,94650.00
2023-05-10T05:23:23.611Z,94654.00
2023-05-10T05:24:23.665Z,94656.00
2023-05-10T05:25:23.629Z,94652.00
2023-05-10T05:26:23.603Z,94654.00
2023-05-10T05:27:23.682Z,94654.00
2023-05-10T05:28:23.687Z,94658.00
2023-05-10T05:29:23.785Z,94656.00
2023-05-10T05:30:23.808Z,94660.00
2023-05-10T05:31:23.947Z,94660.00
2023-05-10T05:32:23.967Z,94658.00
2023-05-10T05:33:24.020Z,94658.00
2023-05-10T05:34:24.462Z,94664.00
2023-05-10T05:35:24.108Z,94664.00
2023-05-10T05:36:24.142Z,94664.00
2023-05-10T05:37:24.165Z,94662.00
2023-05-10T05:38:24.122Z,94664.00
2023-05-10T05:39:24.374Z,94664.00
2023-05-10T05:40:24.272Z,94666.00
2023-05-10T05:41:24.384Z,94664.00
2023-05-10T05:42:24.396Z,94668.00
2023-05-10T05:43:25.391Z,94668.00
2023-05-10T05:44:24.907Z,94666.00
2023-05-10T05:45:25.337Z,94668.00
2023-05-10T05:47:44.147Z,94666.00
2023-05-10T05:48:44.115Z,94670.00
2023-05-10T05:49:43.899Z,94670.00
2023-05-10T05:50:43.865Z,94668.00
2023-05-10T05:51:43.892Z,94670.00
2023-05-10T05:52:43.851Z,94670.00
2023-05-10T05:53:44.077Z,94670.00
2023-05-10T05:54:43.838Z,94670.00
2023-05-10T05:55:43.850Z,94670.00
2023-05-10T05:56:43.870Z,94668.00
2023-05-10T05:57:43.807Z,94672.00
2023-05-10T05:58:43.856Z,94670.00
2023-05-10T05:59:44.105Z,94670.00
2023-05-10T06:00:43.793Z,94668.00
2023-05-10T06:01:43.835Z,94670.00
2023-05-10T06:02:43.875Z,94670.00
2023-05-10T06:03:43.877Z,94672.00
2023-05-10T06:04:44.910Z,94668.00
2023-05-10T06:05:43.786Z,94668.00
2023-05-10T06:06:43.805Z,94672.00
2023-05-10T06:07:43.739Z,94670.00
2023-05-10T06:08:43.734Z,94672.00
2023-05-10T06:09:43.767Z,94672.00
2023-05-10T06:10:43.722Z,94672.00
2023-05-10T06:11:43.708Z,94672.00
2023-05-10T06:12:43.704Z,94672.00
2023-05-10T06:13:43.699Z,94668.00
2023-05-10T06:14:43.699Z,94672.00
2023-05-10T06:15:43.793Z,94674.00
2023-05-10T06:16:43.754Z,94674.00
2023-05-10T06:17:43.769Z,94678.00
2023-05-10T06:18:43.710Z,94678.00
2023-05-10T06:19:43.702Z,94680.00
2023-05-10T06:20:43.693Z,94682.00
2023-05-10T06:21:43.613Z,94683.00
2023-05-10T06:22:44.562Z,94685.00
2023-05-10T06:23:44.058Z,94687.00
2023-05-10T06:24:43.636Z,94685.00
2023-05-10T06:25:43.634Z,94691.00
2023-05-10T06:26:43.634Z,94691.00
2023-05-10T06:27:44.344Z,94691.00
2023-05-10T06:28:43.611Z,94689.00
2023-05-10T06:29:44.135Z,94693.00
2023-05-10T06:30:43.580Z,94687.00
2023-05-10T06:31:43.639Z,94689.00
2023-05-10T06:32:43.608Z,94687.00
2023-05-10T06:33:43.637Z,94685.00
2023-05-10T06:34:43.562Z,94689.00
2023-05-10T06:35:43.674Z,94689.00
2023-05-10T06:36:43.524Z,94689.00
2023-05-10T06:37:43.550Z,94693.00
2023-05-10T06:38:43.565Z,94687.00
2023-05-10T06:39:43.551Z,94689.00
2023-05-10T06:40:43.761Z,94687.00
2023-05-10T06:41:43.686Z,94689.00
2023-05-10T06:42:43.721Z,94695.00
2023-05-10T06:43:43.787Z,94693.00
2023-05-10T06:44:43.856Z,94695.00
2023-05-10T06:45:43.892Z,94695.00
2023-05-10T06:48:03.518Z,94697.00
2023-05-10T06:49:04.452Z,94691.00
2023-05-10T06:50:03.410Z,94693.00
2023-05-10T06:51:03.414Z,94693.00
2023-05-10T06:52:03.396Z,94693.00
2023-05-10T06:53:03.402Z,94689.00
2023-05-10T06:54:03.417Z,94693.00
2023-05-10T06:55:03.429Z,94697.00
2023-05-10T06:56:04.417Z,94691.00
2023-05-10T06:57:04.165Z,94691.00
2023-05-10T06:58:03.419Z,94687.00
2023-05-10T06:59:03.454Z,94689.00
2023-05-10T07:00:03.609Z,94687.00
2023-05-10T07:01:03.610Z,94685.00
2023-05-10T07:02:03.668Z,94685.00
2023-05-10T07:03:03.720Z,94689.00
2023-05-10T07:04:04.043Z,94687.00
2023-05-10T07:05:03.833Z,94687.00
2023-05-10T07:06:03.904Z,94687.00
2023-05-10T07:07:03.936Z,94687.00
2023-05-10T07:08:03.970Z,94689.00
2023-05-10T07:09:04.027Z,94689.00
2023-05-10T07:10:04.088Z,94685.00
2023-05-10T07:11:04.114Z,94689.00
2023-05-10T07:12:04.187Z,94691.00
2023-05-10T07:13:04.196Z,94687.00
2023-05-10T07:14:04.209Z,94691.00
2023-05-10T07:15:04.253Z,94689.00
2023-05-10T07:16:04.235Z,94689.00
2023-05-10T07:17:04.243Z,94687.00
2023-05-10T07:18:04.489Z,94691.00
2023-05-10T07:19:04.302Z,94689.00
2023-05-10T07:20:04.530Z,94687.00
2023-05-10T07:21:04.382Z,94691.00
2023-05-10T07:22:04.424Z,94691.00
2023-05-10T07:23:04.472Z,94689.00
2023-05-10T07:24:04.576Z,94691.00
2023-05-10T07:25:04.802Z,94693.00
2023-05-10T07:26:04.662Z,94695.00
2023-05-10T07:27:04.704Z,94693.00
2023-05-10T07:28:04.664Z,94695.00
2023-05-10T07:29:04.686Z,94697.00
2023-05-10T07:30:04.776Z,94697.00
2023-05-10T07:31:04.797Z,94693.00
2023-05-10T07:32:04.812Z,94697.00
2023-05-10T07:33:04.772Z,94695.00
2023-05-10T07:34:04.809Z,94693.00
2023-05-10T07:35:04.825Z,94693.00
2023-05-10T07:36:04.757Z,94689.00
2023-05-10T07:37:04.781Z,94685.00
2023-05-10T07:38:04.783Z,94689.00
2023-05-10T07:39:04.793Z,94689.00
2023-05-10T07:40:04.868Z,94687.00
2023-05-10T07:41:04.838Z,94693.00
2023-05-10T07:42:04.911Z,94693.00
2023-05-10T07:43:04.965Z,94691.00
2023-05-10T07:44:05.012Z,94691.00
2023-05-10T07:45:05.085Z,94693.00
2023-05-10T07:46:05.213Z,94693.00
2023-05-10T07:47:05.169Z,94693.00
2023-05-10T07:48:05.265Z,94695.00
2023-05-10T07:49:05.269Z,94695.00
2023-05-10T07:50:05.537Z,94703.00
2023-05-10T07:51:05.348Z,94701.00
2023-05-10T07:52:05.367Z,94703.00
2023-05-10T07:53:05.449Z,94705.00
2023-05-10T07:54:05.566Z,94709.00
2023-05-10T07:55:05.571Z,94707.00
2023-05-10T07:56:05.620Z,94705.00
2023-05-10T07:57:05.629Z,94703.00
2023-05-10T07:58:05.685Z,94705.00
2023-05-10T07:59:05.635Z,94703.00
2023-05-10T08:00:05.720Z,94705.00
2023-05-10T08:01:05.757Z,94703.00
2023-05-10T08:02:05.854Z,94705.00
2023-05-10T08:03:05.909Z,94705.00
2023-05-10T08:04:05.920Z,94703.00
2023-05-10T08:05:05.855Z,94709.00
2023-05-10T08:06:05.912Z,94705.00
2023-05-10T08:07:05.975Z,94707.00
2023-05-10T08:08:06.010Z,94703.00
2023-05-10T08:09:06.043Z,94707.00
2023-05-10T08:10:06.077Z,94707.00
2023-05-10T08:11:06.074Z,94709.00
2023-05-10T08:12:06.195Z,94707.00
2023-05-10T08:13:06.253Z,94711.00
2023-05-10T08:14:06.234Z,94713.00
2023-05-10T08:15:06.260Z,94711.00
2023-05-10T08:16:06.409Z,94713.00
2023-05-10T08:17:06.941Z,94711.00
2023-05-10T08:18:06.511Z,94715.00
2023-05-10T08:19:06.513Z,94713.00
2023-05-10T08:20:06.612Z,94711.00
2023-05-10T08:21:06.526Z,94711.00
2023-05-10T08:22:06.577Z,94715.00
2023-05-10T08:23:06.583Z,94713.00
2023-05-10T08:24:06.626Z,94715.00
2023-05-10T08:25:07.420Z,94715.00
2023-05-10T08:26:06.811Z,94717.00
2023-05-10T08:27:06.822Z,94715.00
2023-05-10T08:28:06.846Z,94715.00
2023-05-10T08:29:06.845Z,94715.00
2023-05-10T08:30:07.143Z,94715.00
2023-05-10T08:31:07.017Z,94717.00
2023-05-10T08:32:06.982Z,94715.00
2023-05-10T08:33:07.105Z,94717.00
2023-05-10T08:34:07.062Z,94719.00
2023-05-10T08:35:07.154Z,94717.00
2023-05-10T08:36:07.622Z,94721.00
2023-05-10T08:37:07.185Z,94721.00
2023-05-10T08:38:07.262Z,94727.00
2023-05-10T08:39:13.532Z,94727.00
2023-05-10T08:40:08.230Z,94727.00
2023-05-10T08:41:07.306Z,94729.00
2023-05-10T08:42:07.229Z,94730.00
2023-05-10T08:43:07.384Z,94730.00
2023-05-10T08:44:07.205Z,94730.00
2023-05-10T08:45:07.530Z,94729.00
2023-05-10T08:46:07.825Z,94727.00
2023-05-10T08:47:07.327Z,94727.00
2023-05-10T08:48:07.242Z,94727.00
2023-05-10T08:49:07.190Z,94730.00
2023-05-10T08:50:07.207Z,94730.00
2023-05-10T08:51:07.607Z,94727.00
2023-05-10T08:52:07.265Z,94732.00
2023-05-10T08:53:07.292Z,94732.00
2023-05-10T08:54:07.302Z,94732.00
2023-05-10T08:55:07.344Z,94730.00
2023-05-10T08:56:07.388Z,94736.00
2023-05-10T08:57:07.404Z,94736.00
2023-05-10T08:58:07.367Z,94740.00
2023-05-10T08:59:07.372Z,94738.00
2023-05-10T09:00:07.450Z,94738.00
2023-05-10T09:01:07.844Z,94742.00
2023-05-10T09:02:07.473Z,94742.00
2023-05-10T09:03:07.571Z,94742.00
2023-05-10T09:04:07.692Z,94748.00
2023-05-10T09:05:07.686Z,94746.00
2023-05-10T09:06:08.125Z,94740.00
2023-05-10T09:07:07.656Z,94742.00
2023-05-10T09:08:07.662Z,94746.00
2023-05-10T09:09:07.669Z,94742.00
2023-05-10T09:10:07.716Z,94746.00
2023-05-10T09:11:08.544Z,94748.00
2023-05-10T09:12:08.717Z,94744.00
2023-05-10T09:13:07.723Z,94746.00
2023-05-10T09:14:07.651Z,94742.00
2023-05-10T09:15:07.719Z,94746.00
2023-05-10T09:16:20.286Z,94748.00
2023-05-10T09:17:08.754Z,94744.00
2023-05-10T09:18:07.743Z,94746.00
2023-05-10T09:19:07.752Z,94748.00
2023-05-10T09:20:07.708Z,94752.00
2023-05-10T09:21:07.692Z,94752.00
2023-05-10T09:22:07.685Z,94752.00
2023-05-10T09:23:07.736Z,94752.00
2023-05-10T09:24:07.754Z,94752.00
2023-05-10T09:25:07.814Z,94756.00
2023-05-10T09:26:07.856Z,94756.00
2023-05-10T09:27:07.935Z,94756.00
2023-05-10T09:28:07.992Z,94756.00
2023-05-10T09:29:08.090Z,94758.00
2023-05-10T09:30:08.064Z,94754.00
2023-05-10T09:31:08.168Z,94758.00
2023-05-10T09:32:08.105Z,94754.00
2023-05-10T09:33:08.137Z,94754.00
2023-05-10T09:34:08.205Z,94752.00
2023-05-10T09:35:08.126Z,94750.00
2023-05-10T09:36:08.613Z,94752.00
2023-05-10T09:37:08.133Z,94750.00
2023-05-10T09:38:08.162Z,94752.00
2023-05-10T09:39:08.168Z,94750.00
2023-05-10T09:40:08.228Z,94750.00
2023-05-10T09:41:08.190Z,94752.00
2023-05-10T09:42:08.223Z,94750.00
2023-05-10T09:43:08.410Z,94748.00
2023-05-10T09:44:08.313Z,94748.00
2023-05-10T09:45:08.363Z,94750.00
2023-05-10T09:46:08.387Z,94750.00
2023-05-10T09:47:08.421Z,94750.00
2023-05-10T09:48:08.459Z,94750.00
2023-05-10T09:49:08.492Z,94748.00
2023-05-10T09:50:08.506Z,94752.00
2023-05-10T09:51:08.647Z,94748.00
2023-05-10T09:52:08.605Z,94750.00
2023-05-10T09:53:08.578Z,94752.00
2023-05-10T09:54:08.633Z,94752.00
2023-05-10T09:55:08.654Z,94752.00
2023-05-10T09:56:08.647Z,94752.00
2023-05-10T09:57:08.671Z,94750.00
2023-05-10T09:58:08.714Z,94752.00
2023-05-10T09:59:09.461Z,94750.00
2023-05-10T10:00:08.729Z,94752.00
2023-05-10T10:01:08.839Z,94756.00
2023-05-10T10:02:08.718Z,94754.00
2023-05-10T10:03:08.822Z,94756.00
2023-05-10T10:04:08.730Z,94750.00
2023-05-10T10:05:08.762Z,94754.00
2023-05-10T10:06:18.840Z,94752.00
2023-05-10T10:07:09.706Z,94752.00
2023-05-10T10:08:08.666Z,94752.00
2023-05-10T10:09:08.706Z,94752.00
2023-05-10T10:10:08.733Z,94754.00
2023-05-10T10:11:09.099Z,94752.00
2023-05-10T10:12:08.641Z,94754.00
2023-05-10T10:13:08.620Z,94750.00
2023-05-10T10:14:08.704Z,94752.00
2023-05-10T10:15:08.656Z,94752.00
2023-05-10T10:16:08.662Z,94754.00
2023-05-10T10:17:09.090Z,94752.00
2023-05-10T10:18:08.658Z,94752.00
2023-05-10T10:19:08.614Z,94754.00
2023-05-10T10:20:10.466Z,94754.00
2023-05-10T10:21:08.572Z,94752.00
2023-05-10T10:22:08.621Z,94760.00
2023-05-10T10:23:08.556Z,94760.00
2023-05-10T10:24:08.578Z,94758.00
2023-05-10T10:25:08.563Z,94760.00
2023-05-10T10:26:08.644Z,94758.00
2023-05-10T10:27:08.568Z,94758.00
2023-05-10T10:28:08.513Z,94760.00
2023-05-10T10:29:08.585Z,94760.00
2023-05-10T10:30:08.587Z,94760.00
2023-05-10T10:31:08.584Z,94760.00
2023-05-10T10:32:08.605Z,94756.00
2023-05-10T10:33:20.183Z,94756.00
2023-05-10T10:34:09.534Z,94758.00
2023-05-10T10:35:08.530Z,94756.00
2023-05-10T10:36:08.508Z,94756.00
2023-05-10T10:37:08.628Z,94756.00
2023-05-10T10:38:08.532Z,94756.00
2023-05-10T10:39:08.546Z,94754.00
2023-05-10T10:40:08.449Z,94752.00
2023-05-10T10:41:08.446Z,94756.00
2023-05-10T10:42:08.637Z,94756.00
2023-05-10T10:43:08.467Z,94758.00
2023-05-10T10:44:08.452Z,94760.00
2023-05-10T10:45:08.481Z,94756.00
2023-05-10T10:46:08.440Z,94754.00
2023-05-10T10:47:08.691Z,94756.00
2023-05-10T10:48:08.542Z,94750.00
2023-05-10T10:49:08.476Z,94752.00
2023-05-10T10:50:08.552Z,94752.00
2023-05-10T10:51:10.087Z,94752.00
2023-05-10T10:52:08.532Z,94752.00
2023-05-10T10:53:08.550Z,94752.00
2023-05-10T10:54:08.619Z,94756.00
2023-05-10T10:55:08.629Z,94750.00
2023-05-10T10:56:08.678Z,94750.00
2023-05-10T10:57:08.716Z,94746.00
2023-05-10T10:58:08.642Z,94750.00
2023-05-10T10:59:08.688Z,94750.00
2023-05-10T11:00:08.724Z,94748.00
2023-05-10T11:01:08.756Z,94746.00
2023-05-10T11:02:08.812Z,94746.00
2023-05-10T11:03:08.916Z,94744.00
2023-05-10T11:04:08.818Z,94744.00
2023-05-10T11:05:08.822Z,94744.00
2023-05-10T11:06:08.892Z,94748.00
2023-05-10T11:07:09.155Z,94744.00
2023-05-10T11:08:08.943Z,94742.00
2023-05-10T11:09:08.985Z,94744.00
2023-05-10T11:10:08.949Z,94746.00
2023-05-10T11:11:09.000Z,94744.00
2023-05-10T11:12:09.237Z,94738.00
2023-05-10T11:13:09.101Z,94740.00
2023-05-10T11:14:09.145Z,94740.00
2023-05-10T11:15:10.448Z,94738.00
2023-05-10T11:16:09.242Z,94738.00
2023-05-10T11:17:09.298Z,94738.00
2023-05-10T11:18:09.343Z,94736.00
2023-05-10T11:19:09.462Z,94738.00
2023-05-10T11:20:09.458Z,94736.00
2023-05-10T11:21:09.490Z,94736.00
2023-05-10T11:22:09.613Z,94738.00
2023-05-10T11:23:09.612Z,94738.00
2023-05-10T11:24:09.662Z,94732.00
2023-05-10T11:25:09.679Z,94736.00
2023-05-10T11:26:09.860Z,94738.00
2023-05-10T11:27:10.378Z,94736.00
2023-05-10T11:28:09.990Z,94736.00
2023-05-10T11:29:10.197Z,94736.00
2023-05-10T11:30:09.953Z,94736.00
2023-05-10T11:31:09.924Z,94736.00
2023-05-10T11:32:10.229Z,94738.00
2023-05-10T11:33:10.002Z,94736.00
2023-05-10T11:34:09.890Z,94738.00
2023-05-10T11:35:09.901Z,94738.00
2023-05-10T11:36:09.896Z,94740.00
2023-05-10T11:37:09.868Z,94738.00
2023-05-10T11:38:10.151Z,94740.00
2023-05-10T11:39:09.889Z,94738.00
2023-05-10T11:40:09.883Z,94736.00
2023-05-10T11:41:10.030Z,94736.00
2023-05-10T11:42:09.901Z,94734.00
2023-05-10T11:43:10.123Z,94738.00
2023-05-10T11:44:09.964Z,94738.00
2023-05-10T11:45:10.034Z,94736.00
2023-05-10T11:46:10.056Z,94738.00
2023-05-10T11:47:10.117Z,94738.00
2023-05-10T11:48:10.201Z,94740.00
2023-05-10T11:49:10.149Z,94740.00